KPWTKYKM

Guest
Details From KPWT - Bremerton National
To KYKM - Yakima Air Terminal Mc Allister Fld
Flight Number -
Tags Generated
Created
Modified
Stats Distance 106 nm / 197 km
Max Altitude 0 ft / 0 m
Waypoints 2
Social Downloads 3
Likes 0
Share VATSIM

Download

Looking for another format? Having issues loading an existing format? Contact us
Advertisement - Login to hide

Notes

Generated

Route

KPWT KYKM

ID Type Via Altitude Latitude Longitude Leg Dist Tot Dist Heading (true) Name
O KPWT APT - 0 ft / 0 m 47.48333˚ -122.77138˚ - 0 nm - -
O KYKM APT - 0 ft / 0 m 46.56390˚ -120.54813˚ 106 nm 106 nm 120° / 122° -

Altitude Profile

Advertisement - Login to hide

KPWT

Details ICAO KPWT (PWT)
Name Bremerton National
Region United States
Timezone America/Los_Angeles (UTC-8.0)
Stats Elevation 444 ft / 135 m (AMSL)
Location 47.490240° -122.764815°
Runways 1
Magnetic Variation 15.774° E

METAR

KPWT 171856Z AUTO 20012G22KT 10SM -RA OVC002 07/06 A3008 RMK AO2 RAE31B54 SLP203 P0001 T00670061

Decode

TAF

TAF KPWT 171729Z 1718/1818 20013G25KT 4SM -RA BR OVC002 FM172100 19015G28KT 5SM -RA BR BKN006 OVC012

Decode

Departure Runways

ID Width Length Bearing (true) Bearing (mag) Surface Threshold Offset Overrun Length
01 151 ft / 46 m 5,997 ft / 1,828 m 32.69° 16.92° Asphalt 0 ft / 0 m 0 ft / 0 m
19 151 ft / 46 m 5,997 ft / 1,828 m 212.70° 196.93° Asphalt 0 ft / 0 m 1,243 ft / 379 m

KYKM

Details ICAO KYKM (YKM)
Name YAKIMA AIR TERMINAL MC ALLISTER FLD
Region United States
Timezone America/Los_Angeles (UTC-8.0)
Stats Elevation 1,095 ft / 334 m (AMSL)
Location 46.567766° -120.543435°
Runways 2
Magnetic Variation 15.119° E

METAR

KYKM 171900Z 28004KT 6SM BR SCT006 SCT050 OVC065 01/M01 A3016

Decode

TAF

TAF KYKM 171720Z 1718/1818 25004KT 3SM BR BKN005 OVC015 FM172000 26005KT 5SM BR SCT005 OVC025 FM180400 23008KT 4SM BR SCT010 OVC030 FM181300 24009KT 5SM -RA BR OVC030

Decode

Destination Runways

ID Width Length Bearing (true) Bearing (mag) Surface Threshold Offset Overrun Length
04 151 ft / 46 m 3,828 ft / 1,167 m 59.81° 44.69° Asphalt 0 ft / 0 m 0 ft / 0 m
09 151 ft / 46 m 7,586 ft / 2,312 m 110.04° 94.92° Asphalt 0 ft / 0 m 0 ft / 0 m
22 151 ft / 46 m 3,828 ft / 1,167 m 239.82° 224.70° Asphalt 0 ft / 0 m 0 ft / 0 m
27 151 ft / 46 m 7,586 ft / 2,312 m 290.06° 274.94° Asphalt 0 ft / 0 m 0 ft / 0 m

Approach Navaids

Runway Type Ident Frequency Range Bearing (true) Bearing (mag) Slope Elevation
27 Localiser IYKM 110.10 MHz 18 nm / 33 km 290.04° 274.92° - 1,095 ft / 334 m (AMSL)
27 Glidescope IYKM 110.10 MHz 10 nm / 19 km 290.05° 274.93° 3.00° 1,051 ft / 320 m (AMSL)